Blankenberge, Belgium
Current Conditions -  °F | °C
As of 3:20 AM on Friday 19 Dec 2014 (Local Time) from EBOS Reporting Station
Broken Clouds Broken Clouds  
Wind Chill: 12°   Ceiling: 1200
Heat Index: 12°   Visibility: 6mi
Dew Point: 11°   Wind: 22mph
Humidity: 94%   Direction: 220°SW
Pressure: 29.88"   Gusts: 33mph
Location:  51.31°N, 3.13°E
Report Text: EBOS 190220Z 22019G29KT 9999 SCT007 BKN012 12/11 Q1012 TEMPO BKN008
Loading
Personal Weather Stations






























Interactive Weather Map New forecast layout! Learn more

10-Day Weather Forecast

Advertisements
Track Severe Weather on mobile